createdAt,value
2019-03-01T00:00:35.654Z,10.10
2019-03-01T00:03:04.093Z,10.10
2019-03-01T00:06:16.248Z,10.10
2019-03-01T00:09:33.248Z,10.00
2019-03-01T00:13:11.846Z,10.00
2019-03-01T00:15:58.819Z,10.00
2019-03-01T00:19:45.597Z,10.10
2019-03-01T00:23:23.189Z,10.10
2019-03-01T00:26:55.902Z,10.20
2019-03-01T00:30:31.694Z,10.30
2019-03-01T00:34:02.144Z,10.30
2019-03-01T00:37:11.355Z,10.30
2019-03-01T00:40:24.754Z,10.30
2019-03-01T00:43:57.207Z,10.30
2019-03-01T00:46:25.160Z,10.30
2019-03-01T00:48:52.907Z,10.40
2019-03-01T00:51:22.472Z,10.30
2019-03-01T00:53:50.375Z,10.30
2019-03-01T00:56:18.303Z,10.30
2019-03-01T00:58:46.248Z,10.30
2019-03-01T01:01:14.479Z,10.30
2019-03-01T01:03:42.244Z,10.30
2019-03-01T01:06:10.167Z,10.30
2019-03-01T01:08:37.909Z,10.30
2019-03-01T01:11:05.820Z,10.30
2019-03-01T01:13:33.571Z,10.30
2019-03-01T01:16:01.519Z,10.30
2019-03-01T01:18:29.249Z,10.30
2019-03-01T01:20:57.256Z,10.30
2019-03-01T01:23:25.175Z,10.20
2019-03-01T01:25:53.143Z,10.30
2019-03-01T01:28:21.159Z,10.20
2019-03-01T01:30:49.096Z,10.20
2019-03-01T01:33:16.855Z,10.20
2019-03-01T01:35:44.834Z,10.20
2019-03-01T01:38:12.579Z,10.20
2019-03-01T01:40:40.532Z,10.20
2019-03-01T01:43:08.242Z,10.20
2019-03-01T01:45:36.186Z,10.10
2019-03-01T01:48:03.895Z,10.10
2019-03-01T01:50:31.665Z,10.10
2019-03-01T01:52:59.381Z,10.10
2019-03-01T01:55:27.173Z,10.00
2019-03-01T01:57:54.919Z,10.00
2019-03-01T02:00:22.679Z,10.00
2019-03-01T02:02:50.411Z,10.00
2019-03-01T02:05:18.164Z,10.00
2019-03-01T02:07:45.907Z,10.00
2019-03-01T02:10:13.851Z,10.00
2019-03-01T02:12:41.588Z,10.00
2019-03-01T02:15:12.480Z,9.90
2019-03-01T02:17:40.131Z,10.00
2019-03-01T02:20:08.612Z,10.00
2019-03-01T02:22:36.522Z,10.00
2019-03-01T02:25:05.591Z,9.90
2019-03-01T02:27:33.502Z,9.90
2019-03-01T02:30:02.665Z,9.90
2019-03-01T02:32:50.326Z,9.90
2019-03-01T02:35:23.150Z,10.00
2019-03-01T02:37:50.922Z,9.90
2019-03-01T02:40:18.888Z,9.90
2019-03-01T02:42:46.604Z,10.00
2019-03-01T02:45:16.790Z,10.00
2019-03-01T02:47:44.309Z,10.00
2019-03-01T02:50:12.821Z,10.00
2019-03-01T02:52:40.789Z,10.00
2019-03-01T02:55:10.658Z,10.00
2019-03-01T02:57:38.645Z,10.00
2019-03-01T03:00:13.602Z,10.00
2019-03-01T03:02:41.520Z,9.90
2019-03-01T03:05:09.250Z,9.90
2019-03-01T03:07:48.060Z,9.90
2019-03-01T03:10:16.703Z,9.90
2019-03-01T03:12:44.606Z,10.00
2019-03-01T03:15:13.661Z,10.00
2019-03-01T03:17:41.425Z,10.00
2019-03-01T03:20:09.703Z,10.00
2019-03-01T03:22:37.606Z,10.10
2019-03-01T03:25:05.814Z,10.10
2019-03-01T03:27:33.728Z,10.10
2019-03-01T03:30:01.492Z,10.20
2019-03-01T03:32:29.465Z,10.10
2019-03-01T03:34:57.189Z,10.10
2019-03-01T03:37:24.956Z,10.10
2019-03-01T03:39:52.743Z,10.00
2019-03-01T03:42:20.725Z,10.00
2019-03-01T03:44:48.454Z,10.00
2019-03-01T03:47:16.348Z,10.00
2019-03-01T03:49:44.079Z,10.00
2019-03-01T03:52:11.831Z,10.00
2019-03-01T03:54:39.568Z,9.90
2019-03-01T03:57:07.837Z,9.90
2019-03-01T03:59:35.567Z,9.90
2019-03-01T04:02:03.322Z,9.90
2019-03-01T04:04:33.540Z,9.80
2019-03-01T04:07:01.289Z,9.80
2019-03-01T04:09:29.026Z,9.80
2019-03-01T04:11:56.944Z,9.80
2019-03-01T04:14:24.718Z,9.80
2019-03-01T04:16:52.479Z,9.70
2019-03-01T04:19:20.216Z,9.70
2019-03-01T04:21:48.140Z,9.70
2019-03-01T04:24:15.879Z,9.70
2019-03-01T04:26:43.793Z,9.70
2019-03-01T04:29:11.711Z,9.80
2019-03-01T04:31:39.480Z,9.70
2019-03-01T04:34:07.230Z,9.70
2019-03-01T04:36:35.111Z,9.70
2019-03-01T04:39:04.916Z,9.70
2019-03-01T04:41:32.677Z,9.60
2019-03-01T04:44:00.591Z,9.60
2019-03-01T04:46:28.358Z,9.60
2019-03-01T04:48:57.920Z,9.60
2019-03-01T04:51:25.662Z,9.60
2019-03-01T04:53:53.555Z,9.60
2019-03-01T04:56:21.903Z,9.60
2019-03-01T04:58:49.986Z,9.50
2019-03-01T05:01:17.720Z,9.50
2019-03-01T05:03:45.673Z,9.60
2019-03-01T05:06:13.423Z,9.60
2019-03-01T05:08:41.185Z,9.60
2019-03-01T05:11:08.960Z,9.60
2019-03-01T05:13:36.682Z,9.50
2019-03-01T05:16:04.450Z,9.50
2019-03-01T05:18:32.389Z,9.50
2019-03-01T05:21:00.145Z,9.60
2019-03-01T05:23:28.117Z,9.60
2019-03-01T05:25:55.974Z,9.60
2019-03-01T05:28:23.893Z,9.60
2019-03-01T05:30:51.663Z,9.60
2019-03-01T05:33:19.381Z,9.60
2019-03-01T05:35:47.161Z,9.60
2019-03-01T05:38:21.449Z,9.60
2019-03-01T05:40:44.750Z,9.60
2019-03-01T05:43:12.678Z,9.50
2019-03-01T05:45:40.743Z,9.50
2019-03-01T05:48:08.674Z,9.50
2019-03-01T05:50:36.443Z,9.50
2019-03-01T05:53:04.411Z,9.50
2019-03-01T05:55:32.287Z,9.50
2019-03-01T05:58:28.938Z,9.50
2019-03-01T06:01:28.109Z,9.50
2019-03-01T06:04:22.271Z,9.50
2019-03-01T06:07:38.686Z,9.50
2019-03-01T06:11:12.334Z,9.50
2019-03-01T06:14:55.959Z,9.40
2019-03-01T06:17:56.864Z,9.50
2019-03-01T06:21:07.588Z,9.40
2019-03-01T06:24:03.164Z,9.40
2019-03-01T06:27:24.086Z,9.40
2019-03-01T06:30:51.459Z,9.40
2019-03-01T06:33:53.098Z,9.40
2019-03-01T06:37:04.137Z,9.40
2019-03-01T06:40:42.954Z,9.50
2019-03-01T06:44:07.711Z,9.50
2019-03-01T06:47:28.174Z,9.50
2019-03-01T06:50:08.632Z,9.50
2019-03-01T06:52:36.410Z,9.50
2019-03-01T06:55:04.604Z,9.50
2019-03-01T06:57:32.357Z,9.50
2019-03-01T07:00:00.389Z,9.50
2019-03-01T07:02:35.377Z,9.60
2019-03-01T07:05:03.227Z,9.60
2019-03-01T07:07:31.018Z,9.60
2019-03-01T07:09:58.807Z,9.60
2019-03-01T07:12:26.609Z,9.70
2019-03-01T07:14:54.413Z,9.70
2019-03-01T07:17:22.147Z,9.70
2019-03-01T07:19:49.877Z,9.70
2019-03-01T07:22:17.804Z,9.70
2019-03-01T07:24:45.573Z,9.70
2019-03-01T07:27:13.336Z,9.60
2019-03-01T07:29:41.255Z,9.60
2019-03-01T07:32:09.049Z,9.60
2019-03-01T07:34:36.819Z,9.70
2019-03-01T07:37:04.956Z,9.70
2019-03-01T07:39:32.707Z,9.70
2019-03-01T07:42:00.593Z,9.60
2019-03-01T07:44:28.590Z,9.70
2019-03-01T07:46:57.574Z,9.70
2019-03-01T07:49:25.388Z,9.70
2019-03-01T07:51:53.109Z,9.80
2019-03-01T07:54:22.399Z,9.80
2019-03-01T07:56:50.303Z,9.80
2019-03-01T07:59:18.049Z,9.80
2019-03-01T08:01:45.886Z,9.80
2019-03-01T08:04:13.636Z,9.80
2019-03-01T08:06:41.405Z,9.80
2019-03-01T08:09:12.894Z,9.90
2019-03-01T08:11:40.884Z,9.90
2019-03-01T08:14:10.242Z,9.90
2019-03-01T08:16:38.144Z,10.00
2019-03-01T08:19:06.009Z,10.00
2019-03-01T08:21:33.745Z,10.00
2019-03-01T08:24:01.528Z,10.10
2019-03-01T08:26:30.797Z,10.20
2019-03-01T08:28:59.831Z,10.30
2019-03-01T08:31:27.903Z,10.40
2019-03-01T08:33:55.664Z,10.50
2019-03-01T08:36:24.362Z,10.60
2019-03-01T08:38:52.142Z,10.70
2019-03-01T08:41:21.489Z,10.70
2019-03-01T08:43:51.947Z,10.80
2019-03-01T08:46:19.445Z,10.90
2019-03-01T08:48:47.278Z,11.10
2019-03-01T08:51:15.061Z,11.30
2019-03-01T08:53:42.817Z,11.50
2019-03-01T08:56:14.460Z,11.70
2019-03-01T08:58:41.591Z,11.70
2019-03-01T09:01:11.390Z,11.80
2019-03-01T09:03:50.616Z,11.80
2019-03-01T09:06:18.388Z,11.90
2019-03-01T09:08:46.895Z,12.10
2019-03-01T09:11:14.761Z,12.20
2019-03-01T09:13:42.620Z,12.30
2019-03-01T09:16:10.393Z,12.50
2019-03-01T09:18:38.126Z,12.80
2019-03-01T09:21:06.302Z,13.00
2019-03-01T09:23:34.163Z,13.10
2019-03-01T09:26:01.978Z,13.30
2019-03-01T09:28:32.667Z,13.40
2019-03-01T09:30:59.439Z,13.30
2019-03-01T09:33:27.441Z,13.30
2019-03-01T09:36:01.927Z,13.10
2019-03-01T09:38:29.925Z,13.00
2019-03-01T09:41:01.058Z,12.90
2019-03-01T09:43:27.967Z,12.40
2019-03-01T09:45:56.335Z,12.30
2019-03-01T09:48:24.607Z,12.30
2019-03-01T09:50:52.355Z,12.20
2019-03-01T09:53:20.064Z,12.20
2019-03-01T09:55:47.867Z,12.10
2019-03-01T09:58:15.627Z,12.20
2019-03-01T10:00:55.920Z,12.00
2019-03-01T10:03:18.019Z,12.10
2019-03-01T10:05:45.739Z,12.20
2019-03-01T10:08:13.749Z,12.40
2019-03-01T10:10:41.529Z,12.50
2019-03-01T10:13:09.306Z,12.70
2019-03-01T10:15:37.568Z,13.00
2019-03-01T10:18:08.918Z,13.40
2019-03-01T10:20:36.673Z,13.50
2019-03-01T10:23:04.502Z,13.30
2019-03-01T10:25:32.380Z,13.20
2019-03-01T10:28:00.249Z,13.20
2019-03-01T10:30:28.042Z,13.00
2019-03-01T10:32:55.724Z,13.00
2019-03-01T10:35:23.617Z,12.90
2019-03-01T10:37:53.777Z,12.80
2019-03-01T10:40:21.656Z,12.70
2019-03-01T10:42:49.450Z,12.70
2019-03-01T10:45:21.958Z,12.90
2019-03-01T10:47:49.732Z,12.90
2019-03-01T10:50:17.555Z,13.10
2019-03-01T10:52:45.363Z,13.10
2019-03-01T10:55:15.617Z,13.20
2019-03-01T10:57:43.380Z,13.40
2019-03-01T11:00:22.401Z,13.60
2019-03-01T11:02:51.546Z,13.60
2019-03-01T11:05:19.795Z,13.60
2019-03-01T11:07:48.704Z,13.50
2019-03-01T11:10:23.128Z,13.40
2019-03-01T11:12:51.063Z,13.40
2019-03-01T11:15:19.154Z,13.40
2019-03-01T11:17:46.984Z,13.30
2019-03-01T11:20:15.414Z,13.30
2019-03-01T11:22:46.067Z,13.00
2019-03-01T11:25:14.420Z,12.90
2019-03-01T11:27:45.213Z,12.90
2019-03-01T11:30:21.780Z,13.00
2019-03-01T11:32:49.687Z,13.00
2019-03-01T11:35:17.631Z,13.10
2019-03-01T11:37:45.519Z,13.20
2019-03-01T11:40:19.825Z,13.20
2019-03-01T11:42:47.707Z,13.10
2019-03-01T11:45:15.681Z,13.10
2019-03-01T11:47:43.625Z,13.00
2019-03-01T11:50:17.309Z,12.70
2019-03-01T11:52:45.506Z,12.20
2019-03-01T11:55:14.124Z,11.80
2019-03-01T11:57:42.337Z,11.50
2019-03-01T12:00:14.623Z,11.30
2019-03-01T12:02:42.540Z,11.20
2019-03-01T12:05:10.484Z,11.20
2019-03-01T12:07:38.232Z,11.30
2019-03-01T12:10:07.680Z,11.30
2019-03-01T12:12:35.454Z,11.40
2019-03-01T12:15:03.708Z,11.30
2019-03-01T12:17:31.505Z,11.30
2019-03-01T12:19:59.254Z,11.30
2019-03-01T12:22:27.007Z,11.40
2019-03-01T12:24:54.809Z,11.60
2019-03-01T12:27:22.541Z,11.80
2019-03-01T12:29:50.295Z,12.10
2019-03-01T12:32:18.038Z,12.30
2019-03-01T12:34:45.850Z,12.40
2019-03-01T12:37:13.623Z,12.50
2019-03-01T12:39:42.887Z,12.40
2019-03-01T12:42:10.640Z,12.40
2019-03-01T12:44:38.426Z,12.40
2019-03-01T12:47:06.237Z,12.30
2019-03-01T12:49:34.030Z,12.60
2019-03-01T12:52:01.799Z,12.70
2019-03-01T12:54:29.576Z,13.00
2019-03-01T12:56:57.308Z,13.20
2019-03-01T12:59:25.113Z,13.20
2019-03-01T13:01:52.850Z,13.20
2019-03-01T13:04:20.635Z,12.90
2019-03-01T13:06:48.405Z,12.70
2019-03-01T13:09:16.452Z,12.40
2019-03-01T13:11:44.198Z,12.20
2019-03-01T13:14:12.440Z,12.10
2019-03-01T13:16:40.191Z,11.90
2019-03-01T13:19:07.983Z,12.00
2019-03-01T13:21:35.715Z,11.90
2019-03-01T13:24:03.642Z,12.00
2019-03-01T13:26:31.449Z,12.10
2019-03-01T13:28:59.277Z,12.20
2019-03-01T13:31:28.437Z,12.10
2019-03-01T13:33:58.530Z,12.00
2019-03-01T13:36:26.267Z,11.80
2019-03-01T13:38:54.036Z,11.30
2019-03-01T13:41:21.795Z,10.80
2019-03-01T13:43:49.616Z,10.50
2019-03-01T13:46:17.347Z,10.40
2019-03-01T13:48:45.174Z,10.40
2019-03-01T13:51:13.813Z,10.30
2019-03-01T13:53:49.032Z,10.20
2019-03-01T13:56:12.351Z,10.20
2019-03-01T13:58:40.157Z,10.00
2019-03-01T14:01:08.107Z,9.80
2019-03-01T14:03:36.041Z,9.80
2019-03-01T14:06:03.789Z,9.80
2019-03-01T14:08:31.577Z,9.80
2019-03-01T14:10:59.375Z,9.70
2019-03-01T14:13:29.164Z,9.70
2019-03-01T14:15:57.025Z,9.70
2019-03-01T14:18:24.790Z,9.70
2019-03-01T14:20:54.368Z,9.60
2019-03-01T14:23:24.873Z,9.60
2019-03-01T14:25:51.935Z,9.60
2019-03-01T14:28:19.765Z,9.70
2019-03-01T14:30:47.562Z,9.70
2019-03-01T14:33:15.374Z,9.70
2019-03-01T14:35:43.192Z,9.70
2019-03-01T14:38:11.031Z,9.60
2019-03-01T14:40:38.839Z,9.70
2019-03-01T14:43:06.601Z,9.70
2019-03-01T14:45:34.380Z,9.80
2019-03-01T14:48:05.134Z,9.90
2019-03-01T14:50:33.790Z,10.00
2019-03-01T14:53:01.548Z,10.00
2019-03-01T14:55:34.033Z,10.10
2019-03-01T14:58:19.054Z,10.00
2019-03-01T15:01:01.942Z,9.90
2019-03-01T15:03:38.979Z,9.80
2019-03-01T15:06:08.250Z,9.70
2019-03-01T15:08:40.426Z,9.70
2019-03-01T15:11:14.793Z,9.70
2019-03-01T15:13:42.808Z,9.60
2019-03-01T15:16:10.741Z,9.50
2019-03-01T15:18:39.464Z,9.60
2019-03-01T15:21:08.212Z,9.50
2019-03-01T15:23:35.995Z,9.30
2019-03-01T15:26:04.113Z,9.30
2019-03-01T15:28:35.650Z,9.20
2019-03-01T15:31:03.435Z,9.20
2019-03-01T15:33:31.211Z,9.20
2019-03-01T15:35:59.033Z,9.20
2019-03-01T15:38:27.673Z,9.20
2019-03-01T15:40:56.444Z,9.10
2019-03-01T15:43:26.479Z,9.10
2019-03-01T15:45:53.859Z,9.10
2019-03-01T15:48:21.633Z,9.00
2019-03-01T15:50:49.613Z,9.10
2019-03-01T15:53:17.388Z,9.00
2019-03-01T15:55:45.282Z,8.90
2019-03-01T15:58:13.112Z,8.90
2019-03-01T16:00:40.910Z,8.70
2019-03-01T16:03:08.987Z,8.70
2019-03-01T16:05:37.389Z,8.70
2019-03-01T16:08:08.487Z,8.70
2019-03-01T16:10:36.178Z,8.60
2019-03-01T16:13:04.739Z,8.50
2019-03-01T16:15:38.362Z,8.50
2019-03-01T16:18:04.046Z,8.50
2019-03-01T16:20:31.835Z,8.50
2019-03-01T16:22:59.603Z,8.30
2019-03-01T16:25:27.403Z,8.30
2019-03-01T16:27:55.200Z,8.20
2019-03-01T16:30:23.024Z,8.10
2019-03-01T16:32:50.896Z,8.00
2019-03-01T16:35:18.704Z,8.00
2019-03-01T16:37:49.020Z,7.90
2019-03-01T16:40:16.776Z,7.90
2019-03-01T16:42:45.264Z,7.80
2019-03-01T16:45:13.585Z,7.70
2019-03-01T16:47:42.149Z,7.60
2019-03-01T16:50:12.014Z,7.60
2019-03-01T16:52:39.819Z,7.50
2019-03-01T16:55:11.229Z,7.50
2019-03-01T16:57:39.042Z,7.50
2019-03-01T17:00:09.386Z,7.50
2019-03-01T17:02:38.757Z,7.40
2019-03-01T17:05:08.075Z,7.40
2019-03-01T17:07:35.927Z,7.50
2019-03-01T17:10:04.379Z,7.40
2019-03-01T17:12:33.437Z,7.40
2019-03-01T17:15:01.664Z,7.40
2019-03-01T17:17:33.102Z,7.30
2019-03-01T17:20:02.614Z,7.20
2019-03-01T17:22:29.081Z,7.20
2019-03-01T17:24:56.881Z,7.10
2019-03-01T17:27:24.757Z,7.00
2019-03-01T17:29:52.493Z,6.90
2019-03-01T17:32:20.289Z,6.70
2019-03-01T17:34:48.028Z,6.60
2019-03-01T17:37:15.953Z,6.50
2019-03-01T17:39:43.699Z,6.40
2019-03-01T17:42:11.471Z,6.30
2019-03-01T17:44:41.342Z,6.20
2019-03-01T17:47:09.682Z,6.20
2019-03-01T17:49:38.523Z,6.20
2019-03-01T17:52:06.283Z,6.10
2019-03-01T17:54:34.083Z,6.00
2019-03-01T17:57:01.829Z,6.00
2019-03-01T17:59:29.604Z,6.10
2019-03-01T18:01:57.573Z,6.10
2019-03-01T18:04:25.425Z,6.10
2019-03-01T18:06:53.203Z,6.10
2019-03-01T18:09:20.957Z,6.10
2019-03-01T18:11:48.725Z,6.10
2019-03-01T18:14:16.510Z,6.10
2019-03-01T18:16:44.295Z,6.20
2019-03-01T18:19:12.042Z,6.20
2019-03-01T18:21:39.797Z,6.20
2019-03-01T18:24:07.534Z,6.20
2019-03-01T18:26:36.405Z,6.10
2019-03-01T18:29:08.227Z,6.20
2019-03-01T18:31:35.624Z,6.20
2019-03-01T18:34:03.390Z,6.20
2019-03-01T18:36:31.581Z,6.10
2019-03-01T18:39:00.268Z,6.10
2019-03-01T18:41:28.274Z,6.10
2019-03-01T18:43:56.146Z,6.00
2019-03-01T18:46:23.957Z,6.00
2019-03-01T18:48:51.742Z,6.00
2019-03-01T18:51:19.550Z,6.10
2019-03-01T18:53:47.318Z,6.10
2019-03-01T18:56:15.104Z,6.10
2019-03-01T18:58:45.760Z,6.10
2019-03-01T19:01:12.952Z,6.10
2019-03-01T19:03:41.733Z,6.00
2019-03-01T19:06:12.816Z,6.00
2019-03-01T19:08:39.618Z,6.10
2019-03-01T19:11:08.216Z,6.00
2019-03-01T19:13:35.990Z,6.00
2019-03-01T19:16:03.777Z,6.10
2019-03-01T19:18:31.554Z,6.00
2019-03-01T19:20:59.316Z,6.00
2019-03-01T19:23:29.332Z,5.90
2019-03-01T19:26:00.896Z,5.90
2019-03-01T19:28:26.777Z,5.90
2019-03-01T19:30:55.407Z,5.80
2019-03-01T19:33:23.243Z,5.90
2019-03-01T19:35:51.046Z,5.80
2019-03-01T19:38:21.839Z,5.80
2019-03-01T19:40:48.661Z,5.80
2019-03-01T19:43:16.421Z,5.80
2019-03-01T19:45:44.410Z,5.70
2019-03-01T19:48:12.243Z,5.70
2019-03-01T19:50:40.057Z,5.60
2019-03-01T19:53:07.823Z,5.60
2019-03-01T19:55:35.789Z,5.50
2019-03-01T19:58:03.586Z,5.50
2019-03-01T20:00:31.662Z,5.40
2019-03-01T20:02:59.411Z,5.40
2019-03-01T20:05:27.796Z,5.40
2019-03-01T20:07:57.084Z,5.30
2019-03-01T20:10:25.050Z,5.40
2019-03-01T20:12:52.847Z,5.40
2019-03-01T20:15:22.065Z,5.40
2019-03-01T20:17:49.905Z,5.40
2019-03-01T20:20:19.752Z,5.40
2019-03-01T20:22:50.600Z,5.40
2019-03-01T20:25:17.250Z,5.30
2019-03-01T20:27:45.198Z,5.20
2019-03-01T20:30:28.658Z,5.20
2019-03-01T20:32:53.582Z,5.20
2019-03-01T20:35:21.413Z,5.20
2019-03-01T20:37:50.155Z,5.20
2019-03-01T20:40:17.945Z,5.20
2019-03-01T20:42:45.904Z,5.20
2019-03-01T20:45:15.864Z,5.20
2019-03-01T20:47:44.785Z,5.20
2019-03-01T20:50:15.721Z,5.20
2019-03-01T20:52:42.403Z,5.20
2019-03-01T20:55:10.331Z,5.20
2019-03-01T20:57:38.148Z,5.20
2019-03-01T21:00:09.205Z,5.20
2019-03-01T21:02:36.982Z,5.20
2019-03-01T21:05:05.806Z,5.30
2019-03-01T21:07:33.626Z,5.30
2019-03-01T21:10:01.470Z,5.20
2019-03-01T21:12:29.313Z,5.20
2019-03-01T21:14:58.776Z,5.30
2019-03-01T21:17:26.838Z,5.20
2019-03-01T21:19:54.614Z,5.30
2019-03-01T21:22:22.429Z,5.20
2019-03-01T21:24:50.199Z,5.20
2019-03-01T21:27:18.032Z,5.20
2019-03-01T21:29:47.583Z,5.10
2019-03-01T21:32:15.532Z,5.10
2019-03-01T21:34:43.299Z,5.00
2019-03-01T21:37:12.369Z,5.00
2019-03-01T21:39:40.117Z,5.00
2019-03-01T21:42:08.225Z,4.90
2019-03-01T21:44:35.953Z,4.90
2019-03-01T21:47:06.932Z,4.80
2019-03-01T21:49:33.523Z,4.90
2019-03-01T21:52:03.867Z,4.90
2019-03-01T21:54:31.649Z,4.80
2019-03-01T21:56:59.512Z,4.90
2019-03-01T21:59:27.235Z,4.90
2019-03-01T22:01:55.032Z,4.90
2019-03-01T22:04:22.789Z,4.90
2019-03-01T22:06:50.589Z,4.90
2019-03-01T22:09:20.708Z,4.90
2019-03-01T22:11:49.197Z,5.00
2019-03-01T22:14:17.681Z,5.00
2019-03-01T22:16:45.440Z,5.00
2019-03-01T22:19:13.210Z,5.10
2019-03-01T22:21:40.985Z,5.10
2019-03-01T22:24:08.763Z,5.20
2019-03-01T22:26:36.591Z,5.20
2019-03-01T22:29:05.359Z,5.30
2019-03-01T22:31:35.419Z,5.30
2019-03-01T22:34:02.889Z,5.30
2019-03-01T22:36:30.674Z,5.30
2019-03-01T22:38:58.431Z,5.30
2019-03-01T22:41:26.211Z,5.40
2019-03-01T22:43:54.194Z,5.40
2019-03-01T22:46:24.829Z,5.50
2019-03-01T22:48:56.331Z,5.50
2019-03-01T22:51:21.286Z,5.50
2019-03-01T22:53:49.116Z,5.50
2019-03-01T22:56:16.854Z,5.50
2019-03-01T22:58:44.621Z,5.60
2019-03-01T23:01:23.486Z,5.60
2019-03-01T23:03:59.013Z,5.50
2019-03-01T23:06:26.765Z,5.50
2019-03-01T23:08:55.313Z,5.50
2019-03-01T23:11:23.052Z,5.50
2019-03-01T23:13:52.836Z,5.50
2019-03-01T23:16:20.483Z,5.50
2019-03-01T23:18:56.427Z,5.50
2019-03-01T23:21:17.934Z,5.50
2019-03-01T23:23:45.736Z,5.50
2019-03-01T23:26:13.468Z,5.50
2019-03-01T23:28:43.801Z,5.60
2019-03-01T23:31:10.871Z,5.50
2019-03-01T23:33:38.634Z,5.50
2019-03-01T23:36:06.407Z,5.50
2019-03-01T23:38:34.166Z,5.50
2019-03-01T23:41:01.922Z,5.40
2019-03-01T23:43:30.791Z,5.40
2019-03-01T23:45:59.354Z,5.40
2019-03-01T23:48:27.150Z,5.50
2019-03-01T23:50:54.883Z,5.50
2019-03-01T23:53:22.645Z,5.40
2019-03-01T23:55:50.929Z,5.40
2019-03-01T23:58:20.025Z,5.50
